< < Back
Terminal Aerodrome Forecast


Current Version              Previous Versions:   1  2  3  4  5  6  7  8  9  

Terminal Aerodrome Forecast

350
FTUS42 KGSP 272320
TAFHKY
TAF
KHKY 272320Z 2800/2824 08005KT P6SM SCT070
     FM280900 VRB03KT P6SM BKN060
     FM281300 06002KT P6SM SCT060=

Latest METAR

603
SAUS70 KWBC 280500 RRF
MTRHKY
METAR KHKY 280453Z AUTO 00000KT 10SM CLR 19/17 A3015 RMK AO2 SLP190
T01940172 402830178


USA.gov is the U.S. government's official web portal to all federal, state and local government web resources and services.